Nearby METAR Reports

 

KSLC - Salt Lake City, Utah, USA
Distance from station: SW 8mi, 13km
Updated: Wed, 17-Oct-2018 8:54pm MDT
Mostly cloudy
Mostly cloudy
 Wind from ESE
Wind: ESE 13 mph , 20 km/h
Temperature: 55°F , 13°C
Dew Point: 36°F , 2°C
Humidity: 47%
Barometer: 30.23 inHg , 1023.7 hPa
Clouds: Mostly cloudy
Visibility: 10 miles , 16 km
Cloud details: Few Clouds 7000 ft
Mostly cloudy 12000 ft
2018/10/18 02:54 KSLC 180254Z 12011KT 10SM FEW070 BKN120 13/02 A3023 RMK AO2 SLP217 T01330017 53006
KU42 - Salt Lake Muni, Utah, USA
Distance from station: SSW 18mi, 28km
Updated: Wed, 17-Oct-2018 9:35pm MDT
Clear
Clear
 Wind from calm
Wind: Calm
Temperature: 48°F , 9°C
Dew Point: 36°F , 2°C
Humidity: 62%
Barometer: 30.24 inHg , 1024 hPa
Clouds: Clear
Visibility: 10 miles , 16 km
2018/10/18 03:35 KU42 180335Z AUTO 00000KT 10SM CLR 09/02 A3024 RMK AO1 T00940018
 
KHIF - Hill Afb/Ogden, Utah, USA
Distance from station: NNW 19mi, 30km
Updated: Wed, 17-Oct-2018 8:58pm MDT
Few Clouds
Few Clouds
 Wind from calm
Wind: Calm
Temperature: 52°F , 11°C
Dew Point: 36°F , 2°C
Humidity: 54%
Barometer: 30.24 inHg , 1024 hPa
Clouds: Few Clouds
Visibility: 10 miles , 16 km
Cloud details: Few Clouds 10000 ft
Few Clouds 17000 ft
2018/10/18 02:58 KHIF 180258Z AUTO 00000KT 10SM FEW100 FEW170 11/02 A3024 RMK AO2 VIS 7/8 RWY32 SLP219 T01090017 52006
KOGD - Ogden, Utah, USA
Distance from station: NNW 25mi, 40km
Updated: Wed, 17-Oct-2018 8:53pm MDT
Mostly cloudy
Mostly cloudy
 Wind from SSE
Wind: SSE 8 mph , 13 km/h
Temperature: 52°F , 11°C
Dew Point: 36°F , 2°C
Humidity: 54%
Barometer: 30.22 inHg , 1023.4 hPa
Clouds: Mostly cloudy
Visibility: 10 miles , 16 km
Cloud details: Mostly cloudy 11000 ft
2018/10/18 02:53 KOGD 180253Z AUTO 15007KT 10SM BKN110 11/02 A3022 RMK AO2 SLP210 T01110022 53005
 
K36U - Heber/Russ Mcdon, Utah, USA
Distance from station: SE 34mi, 55km
Updated: Wed, 11-Oct-2017 6:50pm MDT
NOT Current
Clear
Clear
 Wind from SSW
Wind: SSW 10 mph , 17 km/h, Gust: 18 mph , 30 km/h
Temperature: 63°F , 17°C
Dew Point: 16°F , -9°C
Humidity: 16%
Barometer: 29.87 inHg , 1011.5 hPa
Clouds: Clear
Visibility: 10 miles , 16 km
2017/10/12 00:50 K36U 120050Z AUTO 21009G16KT 10SM CLR 17/M09 A2987 RMK AO2
KPVU - Provo Muni, Utah, USA
Distance from station: S 45mi, 72km
Updated: Wed, 17-Oct-2018 8:56pm MDT
Clear
Clear
 Wind from SSE
Wind: SSE 16 mph , 26 km/h
Temperature: 52°F , 11°C
Dew Point: 36°F , 2°C
Humidity: 54%
Barometer: 30.24 inHg , 1024 hPa
Clouds: Clear
Visibility: 10 miles , 16 km
2018/10/18 02:56 KPVU 180256Z 15014KT 10SM CLR 11/02 A3024 RMK AO2 SLP233 T01060022 50005